Open Full Screen Window  High Contrast Mode
Wind Gusting 00 knots
09
May 05, 2016 11:05 AM CDT
Weather Information
Wind Direction
  240 °
Wind Speed
  09 kt (10 mph)
Wind Gust
  00 kt (0 mph)
Altimeter
30.03 in
Visibility
10 SM
Temperature
20° C
68° F
Dewpoint
04° C
39° F
Humidity
35%
1hr Rain Fall
00.00 in.
24hr Rain Fall
00.00 in.
Sky Condition
Clear
VFR

METAR KMDS 051605Z AUTO 24009KT 10SM CLR 20/04 A3003 RMK AO2

*Background is not an actual portrayal of the airport.